sensor_id;sensor_type;location;lat;lon;timestamp;pressure;altitude;pressure_sealevel;temperature;humidity
74680;BME280;63211;48.548;2.704;2023-06-24T00:01:02;101726.97;;;23.31;59.08
74680;BME280;63211;48.548;2.704;2023-06-24T00:03:29;101727.69;;;23.27;59.36
74680;BME280;63211;48.548;2.704;2023-06-24T00:05:57;101724.97;;;23.27;59.36
74680;BME280;63211;48.548;2.704;2023-06-24T00:08:28;101726.25;;;23.24;59.25
74680;BME280;63211;48.548;2.704;2023-06-24T00:11:00;101729.00;;;23.24;59.13
74680;BME280;63211;48.548;2.704;2023-06-24T00:13:27;101717.78;;;23.26;59.56
74680;BME280;63211;48.548;2.704;2023-06-24T00:15:55;101723.50;;;23.24;59.43
74680;BME280;63211;48.548;2.704;2023-06-24T00:18:21;101722.06;;;23.22;59.08
74680;BME280;63211;48.548;2.704;2023-06-24T00:20:49;101724.56;;;23.23;58.62
74680;BME280;63211;48.548;2.704;2023-06-24T00:23:21;101721.22;;;23.21;58.94
74680;BME280;63211;48.548;2.704;2023-06-24T00:25:50;101714.88;;;23.21;59.01
74680;BME280;63211;48.548;2.704;2023-06-24T00:28:18;101719.53;;;23.20;58.57
74680;BME280;63211;48.548;2.704;2023-06-24T00:30:44;101726.09;;;23.19;58.85
74680;BME280;63211;48.548;2.704;2023-06-24T00:33:11;101715.34;;;23.18;58.89
74680;BME280;63211;48.548;2.704;2023-06-24T00:35:38;101724.19;;;23.20;58.95
74680;BME280;63211;48.548;2.704;2023-06-24T00:38:05;101711.53;;;23.19;58.94
74680;BME280;63211;48.548;2.704;2023-06-24T00:40:32;101712.38;;;23.19;58.78
74680;BME280;63211;48.548;2.704;2023-06-24T00:42:59;101712.38;;;23.19;59.02
74680;BME280;63211;48.548;2.704;2023-06-24T00:45:28;101703.16;;;23.14;58.88
74680;BME280;63211;48.548;2.704;2023-06-24T00:47:57;101706.28;;;23.17;58.36
74680;BME280;63211;48.548;2.704;2023-06-24T00:50:24;101706.88;;;23.19;58.60
74680;BME280;63211;48.548;2.704;2023-06-24T00:52:51;101707.34;;;23.16;58.88
74680;BME280;63211;48.548;2.704;2023-06-24T00:55:18;101704.34;;;23.18;58.40
74680;BME280;63211;48.548;2.704;2023-06-24T00:57:47;101696.19;;;23.11;58.31
74680;BME280;63211;48.548;2.704;2023-06-24T01:00:17;101701.84;;;23.16;58.79
74680;BME280;63211;48.548;2.704;2023-06-24T01:02:47;101708.41;;;23.15;58.37
74680;BME280;63211;48.548;2.704;2023-06-24T01:05:13;101713.66;;;23.17;58.09
74680;BME280;63211;48.548;2.704;2023-06-24T01:07:41;101714.50;;;23.17;58.65
74680;BME280;63211;48.548;2.704;2023-06-24T01:10:10;101707.56;;;23.15;58.90
74680;BME280;63211;48.548;2.704;2023-06-24T01:12:39;101711.16;;;23.15;58.17
74680;BME280;63211;48.548;2.704;2023-06-24T01:15:07;101709.47;;;23.14;58.67
74680;BME280;63211;48.548;2.704;2023-06-24T01:17:36;101714.13;;;23.14;58.51
74680;BME280;63211;48.548;2.704;2023-06-24T01:20:10;101716.28;;;23.12;58.20
74680;BME280;63211;48.548;2.704;2023-06-24T01:23:10;101712.47;;;23.13;58.12
74680;BME280;63211;48.548;2.704;2023-06-24T01:25:48;101708.50;;;23.09;58.33
74680;BME280;63211;48.548;2.704;2023-06-24T01:28:33;101709.22;;;23.04;58.49
74680;BME280;63211;48.548;2.704;2023-06-24T01:31:31;101716.16;;;23.07;58.84
74680;BME280;63211;48.548;2.704;2023-06-24T01:34:07;101716.16;;;23.07;58.77
74680;BME280;63211;48.548;2.704;2023-06-24T01:36:39;101716.38;;;23.05;58.82
74680;BME280;63211;48.548;2.704;2023-06-24T01:39:08;101715.91;;;23.08;58.57
74680;BME280;63211;48.548;2.704;2023-06-24T01:41:40;101717.56;;;23.09;58.40
74680;BME280;63211;48.548;2.704;2023-06-24T01:44:09;101712.31;;;23.08;58.48
74680;BME280;63211;48.548;2.704;2023-06-24T01:46:39;101712.47;;;23.13;58.06
74680;BME280;63211;48.548;2.704;2023-06-24T01:49:12;101710.16;;;23.10;58.57
74680;BME280;63211;48.548;2.704;2023-06-24T01:51:39;101712.31;;;23.08;58.08
74680;BME280;63211;48.548;2.704;2023-06-24T01:54:11;101712.31;;;23.08;58.08
74680;BME280;63211;48.548;2.704;2023-06-24T01:56:42;101706.69;;;23.03;58.34
74680;BME280;63211;48.548;2.704;2023-06-24T01:59:10;101709.22;;;23.04;58.35
74680;BME280;63211;48.548;2.704;2023-06-24T02:01:38;101710.28;;;23.03;58.00
74680;BME280;63211;48.548;2.704;2023-06-24T02:04:08;101711.97;;;23.04;58.39
74680;BME280;63211;48.548;2.704;2023-06-24T02:06:36;101705.03;;;23.02;58.38
74680;BME280;63211;48.548;2.704;2023-06-24T02:09:04;101703.34;;;23.01;58.67
74680;BME280;63211;48.548;2.704;2023-06-24T02:11:33;101703.94;;;23.03;58.54
74680;BME280;63211;48.548;2.704;2023-06-24T02:14:01;101702.28;;;23.02;58.05
74680;BME280;63211;48.548;2.704;2023-06-24T02:16:28;101700.81;;;22.99;58.64
74680;BME280;63211;48.548;2.704;2023-06-24T02:18:57;101695.34;;;22.99;58.36
74680;BME280;63211;48.548;2.704;2023-06-24T02:21:26;101703.56;;;22.99;58.33
74680;BME280;63211;48.548;2.704;2023-06-24T02:23:53;101710.75;;;23.00;58.59
74680;BME280;63211;48.548;2.704;2023-06-24T02:26:21;101695.41;;;22.92;58.55
74680;BME280;63211;48.548;2.704;2023-06-24T02:28:49;101700.22;;;22.97;58.42
74680;BME280;63211;48.548;2.704;2023-06-24T02:31:16;101690.59;;;22.88;58.55
74680;BME280;63211;48.548;2.704;2023-06-24T02:33:43;101714.78;;;22.98;57.94
74680;BME280;63211;48.548;2.704;2023-06-24T02:36:11;101716.47;;;22.99;57.91
74680;BME280;63211;48.548;2.704;2023-06-24T02:38:38;101693.34;;;22.88;57.97
74680;BME280;63211;48.548;2.704;2023-06-24T02:41:04;101710.97;;;22.99;57.86
74680;BME280;63211;48.548;2.704;2023-06-24T02:43:32;101706.31;;;22.99;57.95
74680;BME280;63211;48.548;2.704;2023-06-24T02:46:01;101707.63;;;22.96;57.98
74680;BME280;63211;48.548;2.704;2023-06-24T02:48:30;101716.69;;;22.97;57.84
74680;BME280;63211;48.548;2.704;2023-06-24T02:51:00;101710.59;;;22.95;58.15
74680;BME280;63211;48.548;2.704;2023-06-24T02:53:30;101708.69;;;22.95;58.09
74680;BME280;63211;48.548;2.704;2023-06-24T02:55:57;101712.88;;;22.98;58.12
74680;BME280;63211;48.548;2.704;2023-06-24T02:58:25;101705.56;;;22.92;58.42
74680;BME280;63211;48.548;2.704;2023-06-24T03:00:57;101708.91;;;22.94;57.94
74680;BME280;63211;48.548;2.704;2023-06-24T03:03:26;101713.88;;;23.04;57.93
74680;BME280;63211;48.548;2.704;2023-06-24T03:05:53;101719.97;;;23.06;58.50
74680;BME280;63211;48.548;2.704;2023-06-24T03:08:22;101709.69;;;23.01;58.01
74680;BME280;63211;48.548;2.704;2023-06-24T03:10:50;101710.50;;;23.02;58.38
74680;BME280;63211;48.548;2.704;2023-06-24T03:13:17;101669.81;;;22.80;58.36
74680;BME280;63211;48.548;2.704;2023-06-24T03:15:43;101714.47;;;23.06;58.12
74680;BME280;63211;48.548;2.704;2023-06-24T03:18:10;101711.47;;;23.07;57.80
74680;BME280;63211;48.548;2.704;2023-06-24T03:20:37;101710.91;;;23.05;58.09
74680;BME280;63211;48.548;2.704;2023-06-24T03:23:05;101714.00;;;23.09;57.98
74680;BME280;63211;48.548;2.704;2023-06-24T03:25:31;101714.22;;;23.07;58.17
74680;BME280;63211;48.548;2.704;2023-06-24T03:27:59;101703.50;;;23.06;57.95
74680;BME280;63211;48.548;2.704;2023-06-24T03:30:26;101711.72;;;23.06;57.84
74680;BME280;63211;48.548;2.704;2023-06-24T03:32:53;101713.63;;;23.05;58.13
74680;BME280;63211;48.548;2.704;2023-06-24T03:35:19;101716.63;;;23.04;57.78
74680;BME280;63211;48.548;2.704;2023-06-24T03:37:47;101714.72;;;23.04;58.08
74680;BME280;63211;48.548;2.704;2023-06-24T03:40:13;101714.72;;;23.04;58.17
74680;BME280;63211;48.548;2.704;2023-06-24T03:42:40;101721.50;;;23.02;58.03
74680;BME280;63211;48.548;2.704;2023-06-24T03:45:08;101716.22;;;23.00;57.81
74680;BME280;63211;48.548;2.704;2023-06-24T03:47:35;101723.19;;;23.03;57.62
74680;BME280;63211;48.548;2.704;2023-06-24T03:50:04;101718.75;;;23.02;57.84
74680;BME280;63211;48.548;2.704;2023-06-24T03:52:31;101725.53;;;22.99;57.95
74680;BME280;63211;48.548;2.704;2023-06-24T03:54:57;101728.28;;;22.99;57.71
74680;BME280;63211;48.548;2.704;2023-06-24T03:57:24;101736.75;;;22.98;58.36
74680;BME280;63211;48.548;2.704;2023-06-24T03:59:50;101727.69;;;22.97;58.12
74680;BME280;63211;48.548;2.704;2023-06-24T04:02:18;101717.53;;;22.98;58.08
74680;BME280;63211;48.548;2.704;2023-06-24T04:04:45;101718.59;;;22.96;57.76
74680;BME280;63211;48.548;2.704;2023-06-24T04:07:16;101720.28;;;22.98;57.66
74680;BME280;63211;48.548;2.704;2023-06-24T04:09:53;101722.41;;;22.95;57.80
74680;BME280;63211;48.548;2.704;2023-06-24T04:12:20;101721.56;;;22.95;58.04
74680;BME280;63211;48.548;2.704;2023-06-24T04:14:46;101718.84;;;22.95;57.82
74680;BME280;63211;48.548;2.704;2023-06-24T04:17:13;101721.56;;;22.95;57.71
74680;BME280;63211;48.548;2.704;2023-06-24T04:19:41;101717.84;;;22.89;58.23
74680;BME280;63211;48.548;2.704;2023-06-24T04:22:08;101728.59;;;22.91;58.08
74680;BME280;63211;48.548;2.704;2023-06-24T04:24:34;101725.00;;;22.90;58.42
74680;BME280;63211;48.548;2.704;2023-06-24T04:27:01;101729.66;;;22.90;58.20
74680;BME280;63211;48.548;2.704;2023-06-24T04:29:27;101725.25;;;22.89;58.38
74680;BME280;63211;48.548;2.704;2023-06-24T04:31:54;101725.47;;;22.87;58.22
74680;BME280;63211;48.548;2.704;2023-06-24T04:34:20;101728.81;;;22.89;58.36
74680;BME280;63211;48.548;2.704;2023-06-24T04:36:48;101736.22;;;22.89;58.34
74680;BME280;63211;48.548;2.704;2023-06-24T04:39:15;101736.22;;;22.89;57.79
74680;BME280;63211;48.548;2.704;2023-06-24T04:41:41;101731.81;;;22.88;58.22
74680;BME280;63211;48.548;2.704;2023-06-24T04:44:08;101742.78;;;22.88;57.81
74680;BME280;63211;48.548;2.704;2023-06-24T04:46:35;101737.53;;;22.86;58.13
74680;BME280;63211;48.548;2.704;2023-06-24T04:49:02;101732.88;;;22.87;58.16
74680;BME280;63211;48.548;2.704;2023-06-24T04:51:28;101733.13;;;22.85;58.23
74680;BME280;63211;48.548;2.704;2023-06-24T04:53:56;101738.84;;;22.84;58.34
74680;BME280;63211;48.548;2.704;2023-06-24T04:56:23;101736.09;;;22.84;58.21
74680;BME280;63211;48.548;2.704;2023-06-24T04:58:50;101746.25;;;22.83;58.47
74680;BME280;63211;48.548;2.704;2023-06-24T05:01:17;101737.41;;;22.81;58.25
74680;BME280;63211;48.548;2.704;2023-06-24T05:03:43;101739.31;;;22.81;58.52
74680;BME280;63211;48.548;2.704;2023-06-24T05:06:10;101736.31;;;22.82;58.31
74680;BME280;63211;48.548;2.704;2023-06-24T05:08:36;101739.69;;;22.84;58.08
74680;BME280;63211;48.548;2.704;2023-06-24T05:11:05;101728.09;;;22.82;57.90
74680;BME280;63211;48.548;2.704;2023-06-24T05:13:31;101726.63;;;22.80;58.16
74680;BME280;63211;48.548;2.704;2023-06-24T05:15:58;101728.94;;;22.83;57.76
74680;BME280;63211;48.548;2.704;2023-06-24T05:18:24;101728.09;;;22.82;57.98
74680;BME280;63211;48.548;2.704;2023-06-24T05:20:51;101733.81;;;22.81;58.27
74680;BME280;63211;48.548;2.704;2023-06-24T05:23:17;101739.53;;;22.79;58.11
74680;BME280;63211;48.548;2.704;2023-06-24T05:25:44;101736.19;;;22.77;58.44
74680;BME280;63211;48.548;2.704;2023-06-24T05:28:12;101730.69;;;22.77;58.50
74680;BME280;63211;48.548;2.704;2023-06-24T05:30:39;101727.94;;;22.77;58.56
74680;BME280;63211;48.548;2.704;2023-06-24T05:33:06;101733.44;;;22.77;58.37
74680;BME280;63211;48.548;2.704;2023-06-24T05:35:33;101734.03;;;22.79;58.46
74680;BME280;63211;48.548;2.704;2023-06-24T05:37:59;101723.91;;;22.80;57.93
74680;BME280;63211;48.548;2.704;2023-06-24T05:40:26;101728.53;;;22.79;58.36
74680;BME280;63211;48.548;2.704;2023-06-24T05:42:53;101738.03;;;22.77;58.30
74680;BME280;63211;48.548;2.704;2023-06-24T05:45:21;101733.63;;;22.76;57.87
74680;BME280;63211;48.548;2.704;2023-06-24T05:47:47;101733.44;;;22.77;58.26
74680;BME280;63211;48.548;2.704;2023-06-24T05:50:14;101730.69;;;22.77;58.30
74680;BME280;63211;48.548;2.704;2023-06-24T05:52:40;101738.03;;;22.77;58.35
74680;BME280;63211;48.548;2.704;2023-06-24T05:55:07;101736.19;;;22.77;58.53
74680;BME280;63211;48.548;2.704;2023-06-24T05:57:34;101728.97;;;22.76;58.02
74680;BME280;63211;48.548;2.704;2023-06-24T06:00:02;101739.13;;;22.76;58.07
74680;BME280;63211;48.548;2.704;2023-06-24T06:02:31;101740.78;;;22.77;58.32
74680;BME280;63211;48.548;2.704;2023-06-24T06:04:58;101730.88;;;22.76;58.41
74680;BME280;63211;48.548;2.704;2023-06-24T06:07:26;101731.72;;;22.76;57.99
74680;BME280;63211;48.548;2.704;2023-06-24T06:09:52;101742.50;;;22.78;58.45
74680;BME280;63211;48.548;2.704;2023-06-24T06:12:19;101741.66;;;22.77;58.07
74680;BME280;63211;48.548;2.704;2023-06-24T06:14:45;101735.53;;;22.75;58.11
74680;BME280;63211;48.548;2.704;2023-06-24T06:17:14;101727.28;;;22.75;58.34
74680;BME280;63211;48.548;2.704;2023-06-24T06:19:42;101726.22;;;22.76;58.48
74680;BME280;63211;48.548;2.704;2023-06-24T06:22:12;101730.88;;;22.76;58.47
74680;BME280;63211;48.548;2.704;2023-06-24T06:24:39;101728.13;;;22.76;58.37
74680;BME280;63211;48.548;2.704;2023-06-24T06:27:09;101730.88;;;22.76;57.99
74680;BME280;63211;48.548;2.704;2023-06-24T06:29:36;101728.13;;;22.76;58.39
74680;BME280;63211;48.548;2.704;2023-06-24T06:32:03;101726.03;;;22.78;58.55
74680;BME280;63211;48.548;2.704;2023-06-24T06:34:30;101736.19;;;22.77;58.27
74680;BME280;63211;48.548;2.704;2023-06-24T06:36:58;101730.69;;;22.77;58.46
74680;BME280;63211;48.548;2.704;2023-06-24T06:39:24;101741.66;;;22.77;58.57
74680;BME280;63211;48.548;2.704;2023-06-24T06:41:51;101737.84;;;22.78;58.58
74680;BME280;63211;48.548;2.704;2023-06-24T06:44:17;101743.97;;;22.80;58.41
74680;BME280;63211;48.548;2.704;2023-06-24T06:46:44;101739.69;;;22.84;58.08
74680;BME280;63211;48.548;2.704;2023-06-24T06:49:10;101742.22;;;22.86;58.19
74680;BME280;63211;48.548;2.704;2023-06-24T06:51:37;101740.03;;;22.88;58.31
74680;BME280;63211;48.548;2.704;2023-06-24T06:54:05;101744.47;;;22.89;57.93
74680;BME280;63211;48.548;2.704;2023-06-24T06:56:32;101732.56;;;22.95;58.16
74680;BME280;63211;48.548;2.704;2023-06-24T06:58:58;101737.38;;;23.00;57.70
74680;BME280;63211;48.548;2.704;2023-06-24T07:01:25;101741.19;;;22.99;57.80
74680;BME280;63211;48.548;2.704;2023-06-24T07:03:51;101726.91;;;22.90;58.15
74680;BME280;63211;48.548;2.704;2023-06-24T07:06:18;101749.66;;;22.97;58.77
74680;BME280;63211;48.548;2.704;2023-06-24T07:08:46;101746.91;;;22.97;58.33
74680;BME280;63211;48.548;2.704;2023-06-24T07:11:14;101740.56;;;22.96;58.99
74680;BME280;63211;48.548;2.704;2023-06-24T07:13:40;101736.75;;;22.98;58.42
74680;BME280;63211;48.548;2.704;2023-06-24T07:16:07;101737.38;;;23.00;58.66
74680;BME280;63211;48.548;2.704;2023-06-24T07:18:33;101738.53;;;23.22;57.83
74680;BME280;63211;48.548;2.704;2023-06-24T07:21:00;101737.50;;;23.35;58.25
74680;BME280;63211;48.548;2.704;2023-06-24T07:23:27;101731.91;;;23.41;58.28
74680;BME280;63211;48.548;2.704;2023-06-24T07:25:54;101726.06;;;23.49;58.12
74680;BME280;63211;48.548;2.704;2023-06-24T07:28:22;101736.16;;;23.55;58.07
74680;BME280;63211;48.548;2.704;2023-06-24T07:30:48;101727.09;;;23.55;58.24
74680;BME280;63211;48.548;2.704;2023-06-24T07:33:15;101722.56;;;23.60;58.42
74680;BME280;63211;48.548;2.704;2023-06-24T07:35:42;101729.72;;;23.61;58.09
74680;BME280;63211;48.548;2.704;2023-06-24T07:38:08;101727.22;;;23.72;58.45
74680;BME280;63211;48.548;2.704;2023-06-24T07:40:35;101724.84;;;23.75;58.14
74680;BME280;63211;48.548;2.704;2023-06-24T07:43:01;101727.13;;;23.78;58.32
74680;BME280;63211;48.548;2.704;2023-06-24T07:45:29;101718.66;;;23.80;58.35
74680;BME280;63211;48.548;2.704;2023-06-24T07:47:56;101723.69;;;23.83;58.18
74680;BME280;63211;48.548;2.704;2023-06-24T07:50:23;101718.78;;;23.85;58.43
74680;BME280;63211;48.548;2.704;2023-06-24T07:52:49;101713.66;;;23.88;57.92
74680;BME280;63211;48.548;2.704;2023-06-24T07:55:16;101724.50;;;23.95;58.05
74680;BME280;63211;48.548;2.704;2023-06-24T07:57:45;101718.16;;;23.94;57.94
74680;BME280;63211;48.548;2.704;2023-06-24T08:00:13;101724.03;;;23.98;57.78
74680;BME280;63211;48.548;2.704;2023-06-24T08:02:41;101720.81;;;24.01;57.87
74680;BME280;63211;48.548;2.704;2023-06-24T08:05:08;101715.44;;;24.06;57.83
74680;BME280;63211;48.548;2.704;2023-06-24T08:07:35;101721.53;;;24.08;57.72
74680;BME280;63211;48.548;2.704;2023-06-24T08:10:02;101715.53;;;24.11;57.47
74680;BME280;63211;48.548;2.704;2023-06-24T08:12:29;101709.78;;;24.13;57.40
74680;BME280;63211;48.548;2.704;2023-06-24T08:14:56;101715.06;;;24.14;57.54
74680;BME280;63211;48.548;2.704;2023-06-24T08:17:22;101702.75;;;24.17;57.60
74680;BME280;63211;48.548;2.704;2023-06-24T08:19:50;101707.78;;;24.20;57.58
74680;BME280;63211;48.548;2.704;2023-06-24T08:22:17;101707.28;;;24.23;57.31
74680;BME280;63211;48.548;2.704;2023-06-24T08:24:43;101716.19;;;24.25;57.14
74680;BME280;63211;48.548;2.704;2023-06-24T08:27:10;101699.03;;;24.23;57.22
74680;BME280;63211;48.548;2.704;2023-06-24T08:29:37;101697.59;;;24.32;57.05
74680;BME280;63211;48.548;2.704;2023-06-24T08:32:04;101697.47;;;24.39;57.12
74680;BME280;63211;48.548;2.704;2023-06-24T08:34:32;101695.56;;;24.39;57.00
74680;BME280;63211;48.548;2.704;2023-06-24T08:37:00;101691.63;;;24.47;56.69
74680;BME280;63211;48.548;2.704;2023-06-24T08:39:26;101699.16;;;24.51;56.41
74680;BME280;63211;48.548;2.704;2023-06-24T08:41:53;101705.50;;;24.52;56.42
74680;BME280;63211;48.548;2.704;2023-06-24T08:44:19;101701.06;;;24.51;56.31
74680;BME280;63211;48.548;2.704;2023-06-24T08:46:47;101699.88;;;24.47;56.39
74680;BME280;63211;48.548;2.704;2023-06-24T08:49:24;101701.78;;;24.46;56.37
74680;BME280;63211;48.548;2.704;2023-06-24T08:52:00;101701.44;;;24.43;56.34
74680;BME280;63211;48.548;2.704;2023-06-24T08:54:28;101690.66;;;24.41;56.42
74680;BME280;63211;48.548;2.704;2023-06-24T08:56:54;101695.69;;;24.44;56.39
74680;BME280;63211;48.548;2.704;2023-06-24T08:59:21;101690.19;;;24.44;56.25
74680;BME280;63211;48.548;2.704;2023-06-24T09:01:48;101691.25;;;24.43;56.47
74680;BME280;63211;48.548;2.704;2023-06-24T09:04:15;101692.09;;;24.44;56.50
74680;BME280;63211;48.548;2.704;2023-06-24T09:06:42;101685.03;;;24.48;56.85
74680;BME280;63211;48.548;2.704;2023-06-24T09:09:18;101681.28;;;24.54;56.50
74680;BME280;63211;48.548;2.704;2023-06-24T09:11:51;101686.22;;;24.52;56.22
74680;BME280;63211;48.548;2.704;2023-06-24T09:14:18;101682.28;;;24.48;56.86
74680;BME280;63211;48.548;2.704;2023-06-24T09:16:51;101673.19;;;24.47;56.83
74680;BME280;63211;48.548;2.704;2023-06-24T09:19:20;101666.72;;;24.42;56.64
74680;BME280;63211;48.548;2.704;2023-06-24T09:21:47;101666.25;;;24.45;56.60
74680;BME280;63211;48.548;2.704;2023-06-24T09:24:14;101672.09;;;24.48;56.37
74680;BME280;63211;48.548;2.704;2023-06-24T09:26:43;101674.03;;;24.48;56.28
74680;BME280;63211;48.548;2.704;2023-06-24T09:29:11;101670.44;;;24.47;56.28
74680;BME280;63211;48.548;2.704;2023-06-24T09:31:46;101657.75;;;24.46;56.47
74680;BME280;63211;48.548;2.704;2023-06-24T09:34:13;101670.44;;;24.47;56.12
74680;BME280;63211;48.548;2.704;2023-06-24T09:36:42;101662.16;;;24.47;56.44
74680;BME280;63211;48.548;2.704;2023-06-24T09:39:09;101649.13;;;24.43;56.35
74680;BME280;63211;48.548;2.704;2023-06-24T09:41:35;101651.16;;;24.47;56.42
74680;BME280;63211;48.548;2.704;2023-06-24T09:44:08;101651.16;;;24.47;56.35
74680;BME280;63211;48.548;2.704;2023-06-24T09:46:35;101648.66;;;24.46;56.42
74680;BME280;63211;48.548;2.704;2023-06-24T09:49:03;101623.75;;;24.41;56.49
74680;BME280;63211;48.548;2.704;2023-06-24T09:51:32;101638.84;;;24.50;56.42
74680;BME280;63211;48.548;2.704;2023-06-24T09:53:58;101642.66;;;24.49;56.35
74680;BME280;63211;48.548;2.704;2023-06-24T09:56:25;101636.31;;;24.48;56.22
74680;BME280;63211;48.548;2.704;2023-06-24T09:58:52;101629.13;;;24.47;56.44
74680;BME280;63211;48.548;2.704;2023-06-24T10:01:20;101631.41;;;24.50;56.67
74680;BME280;63211;48.548;2.704;2023-06-24T10:03:48;101620.03;;;24.47;56.46
74680;BME280;63211;48.548;2.704;2023-06-24T10:06:15;101613.47;;;24.48;56.28
74680;BME280;63211;48.548;2.704;2023-06-24T10:08:42;101620.88;;;24.47;56.37
74680;BME280;63211;48.548;2.704;2023-06-24T10:11:09;101615.63;;;24.46;56.45
74680;BME280;63211;48.548;2.704;2023-06-24T10:13:35;101613.09;;;24.44;56.66
74680;BME280;63211;48.548;2.704;2023-06-24T10:16:02;101604.25;;;24.42;56.31
74680;BME280;63211;48.548;2.704;2023-06-24T10:18:35;101613.69;;;24.46;56.71
74680;BME280;63211;48.548;2.704;2023-06-24T10:21:02;101607.59;;;24.44;56.47
74680;BME280;63211;48.548;2.704;2023-06-24T10:23:31;101592.16;;;24.43;56.52
74680;BME280;63211;48.548;2.704;2023-06-24T10:25:57;101599.34;;;24.44;56.69
74680;BME280;63211;48.548;2.704;2023-06-24T10:28:24;101589.41;;;24.43;56.78
74680;BME280;63211;48.548;2.704;2023-06-24T10:30:54;101582.81;;;24.44;56.60
74680;BME280;63211;48.548;2.704;2023-06-24T10:33:22;101588.88;;;24.58;56.44
74680;BME280;63211;48.548;2.704;2023-06-24T10:35:50;101587.66;;;24.65;57.56
74680;BME280;63211;48.548;2.704;2023-06-24T10:38:18;101584.16;;;24.70;58.28
74680;BME280;63211;48.548;2.704;2023-06-24T10:40:45;101586.31;;;24.68;57.67
74680;BME280;63211;48.548;2.704;2023-06-24T10:43:28;101582.13;;;24.65;58.29
74680;BME280;63211;48.548;2.704;2023-06-24T10:45:56;101576.38;;;24.67;57.43
74680;BME280;63211;48.548;2.704;2023-06-24T10:48:23;101567.78;;;24.63;58.06
74680;BME280;63211;48.548;2.704;2023-06-24T10:50:51;101579.72;;;24.69;58.00
74680;BME280;63211;48.548;2.704;2023-06-24T10:53:18;101574.97;;;24.64;58.18
74680;BME280;63211;48.548;2.704;2023-06-24T10:55:45;101573.78;;;24.60;58.10
74680;BME280;63211;48.548;2.704;2023-06-24T10:58:13;101575.19;;;24.63;57.78
74680;BME280;63211;48.548;2.704;2023-06-24T11:00:41;101572.44;;;24.63;57.87
74680;BME280;63211;48.548;2.704;2023-06-24T11:03:09;101570.19;;;24.60;57.81
74680;BME280;63211;48.548;2.704;2023-06-24T11:05:38;101565.16;;;24.57;57.81
74680;BME280;63211;48.548;2.704;2023-06-24T11:08:06;101554.41;;;24.55;57.77
74680;BME280;63211;48.548;2.704;2023-06-24T11:10:33;101555.81;;;24.58;57.31
74680;BME280;63211;48.548;2.704;2023-06-24T11:13:05;101562.50;;;24.62;57.34
74680;BME280;63211;48.548;2.704;2023-06-24T11:15:32;101555.69;;;24.64;57.33
74680;BME280;63211;48.548;2.704;2023-06-24T11:18:01;101554.59;;;24.65;57.05
74680;BME280;63211;48.548;2.704;2023-06-24T11:20:29;101545.16;;;24.61;56.81
74680;BME280;63211;48.548;2.704;2023-06-24T11:22:55;101555.81;;;24.58;57.51
74680;BME280;63211;48.548;2.704;2023-06-24T11:25:24;101540.03;;;24.53;57.60
74680;BME280;63211;48.548;2.704;2023-06-24T11:27:50;101541.72;;;24.54;57.27
74680;BME280;63211;48.548;2.704;2023-06-24T11:30:18;101538.97;;;24.54;57.45
74680;BME280;63211;48.548;2.704;2023-06-24T11:32:45;101535.47;;;24.59;56.95
74680;BME280;63211;48.548;2.704;2023-06-24T11:35:13;101533.22;;;24.56;57.17
74680;BME280;63211;48.548;2.704;2023-06-24T11:37:41;101536.56;;;24.58;57.29
74680;BME280;63211;48.548;2.704;2023-06-24T11:40:09;101529.88;;;24.54;57.30
74680;BME280;63211;48.548;2.704;2023-06-24T11:42:38;101528.13;;;24.48;57.77
74680;BME280;63211;48.548;2.704;2023-06-24T11:45:06;101526.44;;;24.47;57.66
74680;BME280;63211;48.548;2.704;2023-06-24T11:47:34;101520.59;;;24.43;57.81
74680;BME280;63211;48.548;2.704;2023-06-24T11:50:02;101523.84;;;24.40;57.85
74680;BME280;63211;48.548;2.704;2023-06-24T11:52:37;101517.25;;;24.41;58.19
74680;BME280;63211;48.548;2.704;2023-06-24T11:55:11;101512.81;;;24.40;58.33
74680;BME280;63211;48.548;2.704;2023-06-24T11:57:53;101511.41;;;24.38;57.92
74680;BME280;63211;48.548;2.704;2023-06-24T12:00:20;101512.22;;;24.38;58.26
74680;BME280;63211;48.548;2.704;2023-06-24T12:02:55;101508.88;;;24.36;58.25
74680;BME280;63211;48.548;2.704;2023-06-24T12:05:26;101504.69;;;24.33;58.21
74680;BME280;63211;48.548;2.704;2023-06-24T12:07:55;101505.06;;;24.37;58.30
74680;BME280;63211;48.548;2.704;2023-06-24T12:10:22;101495.13;;;24.36;57.73
74680;BME280;63211;48.548;2.704;2023-06-24T12:12:49;101495.38;;;24.35;58.40
74680;BME280;63211;48.548;2.704;2023-06-24T12:15:17;101496.19;;;24.35;57.58
74680;BME280;63211;48.548;2.704;2023-06-24T12:17:44;101487.94;;;24.35;58.47
74680;BME280;63211;48.548;2.704;2023-06-24T12:20:11;101484.34;;;24.35;58.40
74680;BME280;63211;48.548;2.704;2023-06-24T12:22:39;101474.19;;;24.35;58.39
74680;BME280;63211;48.548;2.704;2023-06-24T12:25:06;101473.34;;;24.35;58.43
74680;BME280;63211;48.548;2.704;2023-06-24T12:27:33;101479.94;;;24.33;58.06
74680;BME280;63211;48.548;2.704;2023-06-24T12:30:00;101470.59;;;24.35;58.32
74680;BME280;63211;48.548;2.704;2023-06-24T12:32:28;101440.59;;;24.21;57.64
74680;BME280;63211;48.548;2.704;2023-06-24T12:34:54;101460.66;;;24.33;57.45
74680;BME280;63211;48.548;2.704;2023-06-24T12:37:21;101467.00;;;24.34;57.58
74680;BME280;63211;48.548;2.704;2023-06-24T12:39:48;101460.91;;;24.32;58.00
74680;BME280;63211;48.548;2.704;2023-06-24T12:42:16;101468.38;;;24.31;57.54
74680;BME280;63211;48.548;2.704;2023-06-24T12:44:42;101460.91;;;24.32;58.16
74680;BME280;63211;48.548;2.704;2023-06-24T12:47:09;101456.53;;;24.31;57.71
74680;BME280;63211;48.548;2.704;2023-06-24T12:49:37;101460.66;;;24.33;58.10
74680;BME280;63211;48.548;2.704;2023-06-24T12:52:04;101458.16;;;24.32;57.49
74680;BME280;63211;48.548;2.704;2023-06-24T12:54:30;101455.69;;;24.30;56.90